Buoy 44906

sailwx.info

Track history (hours):
 
Tides and Currents Weather Stations Pressure Air Temp Water Temp Dewpoint Dewpoint Depression Visibility Wind Speed Wind Dir Waves Ship Positions

Drifting buoy 44906

Last reported at 2018-Apr-24 23:00 UTC. Time now 2018-Apr-25 01:04 UTC.
Position N 33°26' W 020°47'.

Water temperature 18.3 ° C

Date/timePositionNaut miles runAvg speedWind from/ knotsBaromVisibWave heightAir tempDewpointWater temp
2018-Apr-24 23:00N 33°26' W 020°47'0 0.0 18.3
2018-Apr-24 22:00N 33°26' W 020°47'1 0.8 18.4
2018-Apr-24 21:00N 33°27' W 020°47'0 0.0 18.4
2018-Apr-24 20:00N 33°27' W 020°47'1 1.2 18.4
2018-Apr-24 19:00N 33°28' W 020°46'1 0.6 18.4
2018-Apr-24 18:00N 33°28' W 020°46'1 0.8 18.4
2018-Apr-24 17:00N 33°29' W 020°45'0 0.0 18.4
2018-Apr-24 16:00N 33°29' W 020°45'0 0.0 18.4
2018-Apr-24 15:00N 33°29' W 020°45'2 0.5 18.3
2018-Apr-24 11:00N 33°29' W 020°43'0 0.0 18.3
2018-Apr-24 10:00N 33°29' W 020°43'1 1.0 18.3
2018-Apr-24 09:00N 33°29' W 020°41'1 1.3 18.3
2018-Apr-24 08:00N 33°31' W 020°41'1 1.0 18.3
2018-Apr-24 07:00N 33°31' W 020°40'0 0.0 18.3
2018-Apr-24 06:00N 33°31' W 020°40'0 0.0 18.3
2018-Apr-24 05:00N 33°31' W 020°40'3 3.5 18.3
2018-Apr-24 04:00N 33°32' W 020°36'0 0.0 18.3
2018-Apr-23 23:00N 33°32' W 020°36'0 0.0 18.3
2018-Apr-23 22:00N 33°32' W 020°36'1 1.0 18.3
2018-Apr-23 21:00N 33°32' W 020°35'1 0.8 18.3
2018-Apr-23 20:00N 33°32' W 020°35'2 1.9 18.3
2018-Apr-23 19:00N 33°33' W 020°34'1 0.8 18.3
2018-Apr-23 18:00N 33°34' W 020°33'0 0.5 18.3
2018-Apr-23 17:00N 33°34' W 020°32'0 0.0 18.4
2018-Apr-23 16:00N 33°34' W 020°32'0 0.0 18.4
2018-Apr-23 15:00N 33°34' W 020°32'3 1.0 18.5
2018-Apr-23 12:00N 33°34' W 020°29'1 0.6 18.6
2018-Apr-23 11:00N 33°35' W 020°29'1 0.8 18.6
2018-Apr-23 10:00N 33°34' W 020°28'0 0.0 18.5
2018-Apr-23 09:00N 33°34' W 020°28'3 2.6 18.5
2018-Apr-23 08:00N 33°35' W 020°25'0 0.0 18.5
2018-Apr-23 07:00N 33°35' W 020°25'1 0.6 18.5
2018-Apr-23 06:00N 33°35' W 020°25'0 0.0 18.5
2018-Apr-23 05:00N 33°35' W 020°25'0 0.5 18.5
2018-Apr-23 04:00N 33°35' W 020°26'0 0.0 18.6
2018-Apr-23 03:00N 33°35' W 020°26'2 0.6 18.5
2018-Apr-22 23:00N 33°37' W 020°23'0 0.5 18.6
2018-Apr-22 22:00N 33°37' W 020°23'1 0.8 18.6
2018-Apr-22 21:00N 33°37' W 020°23'1 1.2 18.6
2018-Apr-22 20:00N 33°37' W 020°22'1 0.6 18.6
2018-Apr-22 19:00N 33°37' W 020°22'1 1.2 18.6
2018-Apr-22 18:00N 33°37' W 020°21'1 0.8 18.6
2018-Apr-22 17:00N 33°37' W 020°22'0 0.0 18.6
2018-Apr-22 16:00N 33°37' W 020°22'0 0.0 18.5
2018-Apr-22 15:00N 33°37' W 020°22'2 0.5 18.5
2018-Apr-22 12:00N 33°38' W 020°20'1 0.6 18.4
2018-Apr-22 11:00N 33°39' W 020°20'0 0.5 18.4
2018-Apr-22 10:00N 33°39' W 020°20'1 0.6 18.4
2018-Apr-22 09:00N 33°38' W 020°20'2 2.3 18.5
2018-Apr-22 08:00N 33°40' W 020°17'0 0.0 18.5
2018-Apr-22 07:00N 33°40' W 020°17'1 0.6 18.5
2018-Apr-22 06:00N 33°40' W 020°17'0 0.0 18.4
2018-Apr-22 05:00N 33°40' W 020°17'0 0.5 18.4
2018-Apr-22 04:00N 33°40' W 020°17'4 0.7 18.4
2018-Apr-21 23:00N 33°44' W 020°16'0 0.0 18.4
2018-Apr-21 22:00N 33°44' W 020°16'2 1.9 18.4
2018-Apr-21 21:00N 33°45' W 020°14'0 0.0 18.5
2018-Apr-21 20:00N 33°45' W 020°14'0 0.0 18.5
2018-Apr-21 19:00N 33°45' W 020°14'2 2.1 18.5
2018-Apr-21 18:00N 33°47' W 020°13'1 1.0 18.5
2018-Apr-21 17:00N 33°47' W 020°14'1 1.3 18.5
2018-Apr-21 16:00N 33°48' W 020°14'0 0.0 18.5
2018-Apr-21 15:00N 33°48' W 020°14'0 0.0 18.5
2018-Apr-21 12:00N 33°48' W 020°14'1 0.8 18.4
2018-Apr-21 11:00N 33°49' W 020°13'1 0.8 18.4
2018-Apr-21 10:00N 33°49' W 020°13'1 1.3 18.4
2018-Apr-21 09:00N 33°50' W 020°12'0 0.0 18.4
2018-Apr-21 08:00N 33°50' W 020°12'1 1.5 18.4
2018-Apr-21 07:00N 33°50' W 020°10'1 1.5 18.4
2018-Apr-21 06:00N 33°50' W 020°08'1 1.3 18.4
2018-Apr-21 05:00N 33°52' W 020°09'0 0.0 18.4
2018-Apr-21 04:00N 33°52' W 020°09'6 1.2 18.4
2018-Apr-20 23:00N 33°57' W 020°06'2 1.9 18.5
2018-Apr-20 22:00N 33°58' W 020°04'1 0.6 18.5
2018-Apr-20 21:00N 33°59' W 020°04'2 1.8 18.5
2018-Apr-20 20:00N 34°01' W 020°04'0 0.0 18.5
2018-Apr-20 19:00N 34°01' W 020°04'1 0.6 18.5
2018-Apr-20 18:00N 34°01' W 020°04'1 1.3 18.5
2018-Apr-20 17:00N 34°02' W 020°05'2 2.5 18.5
2018-Apr-20 16:00N 34°05' W 020°04'1 0.3 18.5
2018-Apr-20 12:00N 34°06' W 020°04'0 0.5 18.5
2018-Apr-20 11:00N 34°06' W 020°05'1 1.2 18.5
2018-Apr-20 10:00N 34°07' W 020°04'2 1.6 18.5
2018-Apr-20 09:00N 34°07' W 020°05'0 0.0 18.5
2018-Apr-20 08:00N 34°07' W 020°05'2 2.1 18.5
2018-Apr-20 07:00N 34°09' W 020°04'0 0.5 18.5
2018-Apr-20 06:00N 34°09' W 020°04'2 1.9 18.5
2018-Apr-20 05:00N 34°10' W 020°05'0 0.0 18.5
2018-Apr-20 04:00N 34°10' W 020°05'4 0.9 18.5
2018-Apr-19 23:00N 34°14' W 020°07'2 2.0 18.4
2018-Apr-19 22:00N 34°14' W 020°09'0 0.0 18.4
2018-Apr-19 21:00N 34°14' W 020°09'1 1.2 18.4
2018-Apr-19 20:00N 34°16' W 020°09'0 0.0 18.5
2018-Apr-19 19:00N 34°16' W 020°09'3 3.2 18.5
2018-Apr-19 18:00N 34°19' W 020°08'1 1.3 18.5
2018-Apr-19 17:00N 34°17' W 020°08'1 1.3 18.5
2018-Apr-19 16:00N 34°19' W 020°08'0 0.0 18.5
2018-Apr-19 14:00N 34°19' W 020°08'2 0.9 18.5
2018-Apr-19 12:00N 34°20' W 020°08'1 0.8 18.4
2018-Apr-19 11:00N 34°20' W 020°07'1 1.2 18.4
2018-Apr-19 10:00N 34°21' W 020°07'2 1.9 18.4
2018-Apr-19 09:00N 34°23' W 020°07'0 0.5 18.4
2018-Apr-19 08:00N 34°23' W 020°06'0 0.0 18.3
2018-Apr-19 07:00N 34°23' W 020°06'2 1.9 18.3
2018-Apr-19 06:00N 34°24' W 020°04'5 4.6 18.4
2018-Apr-19 05:00N 34°28' W 020°07'0 0.0 18.4
2018-Apr-19 04:00N 34°28' W 020°07'2 0.3 18.4
2018-Apr-18 23:00N 34°29' W 020°05'1 0.8 18.5
2018-Apr-18 22:00N 34°30' W 020°05'1 1.2 18.5
2018-Apr-18 21:00N 34°31' W 020°06'1 0.8 18.6
2018-Apr-18 20:00N 34°31' W 020°05'0 0.0 18.6
2018-Apr-18 19:00N 34°31' W 020°05'2 1.9 18.6
2018-Apr-18 18:00N 34°33' W 020°05'1 0.8 18.6
2018-Apr-18 17:00N 34°34' W 020°05'0 0.0 18.6
2018-Apr-18 16:00N 34°34' W 020°05'3 3.0 18.6
2018-Apr-18 15:00N 34°37' W 020°05'0 0.2 18.6
2018-Apr-18 12:00N 34°37' W 020°05'1 1.3 18.5
2018-Apr-18 11:00N 34°38' W 020°04'1 0.6 18.5
2018-Apr-18 10:00N 34°38' W 020°04'2 2.1 18.4
2018-Apr-18 09:00N 34°40' W 020°05'1 1.3 18.4
2018-Apr-18 08:00N 34°41' W 020°06'2 1.6 18.4
2018-Apr-18 07:00N 34°42' W 020°04'2 1.9 18.4
2018-Apr-18 06:00N 34°44' W 020°05'8 8.0 18.5
2018-Apr-18 05:00N 34°47' W 020°14'0 0.0 18.5
2018-Apr-18 04:00N 34°47' W 020°14'0 0.0 18.5
2018-Apr-17 23:00N 34°47' W 020°14'1 1.5 18.5
2018-Apr-17 22:00N 34°47' W 020°16'2 2.0 18.6
2018-Apr-17 21:00N 34°47' W 020°18'1 0.8 18.6
2018-Apr-17 20:00N 34°46' W 020°17'1 1.0 18.6
2018-Apr-17 19:00N 34°46' W 020°19'1 1.2 18.6
2018-Apr-17 18:00N 34°46' W 020°17'1 1.5 18.6
2018-Apr-17 17:00N 34°46' W 020°19'1 1.5 18.6
2018-Apr-17 16:00N 34°46' W 020°21'2 2.3 18.6
2018-Apr-17 15:00N 34°47' W 020°23'1 0.4 18.6
2018-Apr-17 12:00N 34°46' W 020°23'1 0.7 18.6
2018-Apr-17 10:00N 34°46' W 020°25'0 0.0 18.5
2018-Apr-17 09:00N 34°46' W 020°25'1 1.5 18.5
2018-Apr-17 08:00N 34°46' W 020°26'1 0.8 18.5
2018-Apr-17 07:00N 34°46' W 020°26'1 0.8 18.6
2018-Apr-17 06:00N 34°47' W 020°25'7 6.9 18.6
2018-Apr-17 05:00N 34°47' W 020°34'0 0.0 18.5
2018-Apr-17 00:00N 34°47' W 020°34'2 0.8 18.6
2018-Apr-16 22:00N 34°47' W 020°35'2 2.1 18.6
2018-Apr-16 21:00N 34°47' W 020°38'1 1.3 18.6
2018-Apr-16 20:00N 34°46' W 020°38'0 0.5 18.6
2018-Apr-16 19:00N 34°46' W 020°39'2 2.1 18.7
2018-Apr-16 18:00N 34°46' W 020°41'0 0.0 18.7
2018-Apr-16 17:00N 34°46' W 020°41'2 2.3 18.7
2018-Apr-16 16:00N 34°44' W 020°44'2 2.5 18.7
2018-Apr-16 15:00N 34°44' W 020°47'2 0.7 18.7
2018-Apr-16 12:00N 34°44' W 020°49'0 0.0 18.6
2018-Apr-16 11:00N 34°44' W 020°49'2 1.9 18.6
2018-Apr-16 10:00N 34°43' W 020°51'1 1.2 18.6
2018-Apr-16 09:00N 34°44' W 020°52'0 0.5 18.5
2018-Apr-16 08:00N 34°44' W 020°53'3 2.5 18.5
2018-Apr-16 07:00N 34°43' W 020°56'0 0.0 18.5
2018-Apr-16 06:00N 34°43' W 020°56'0 0.0 18.6
2018-Apr-16 05:00N 34°43' W 020°56'6 6.1 18.6
2018-Apr-16 04:00N 34°39' W 021°01'1 0.1 18.6
2018-Apr-15 22:00N 34°38' W 021°01'2 2.3 19.0
2018-Apr-15 21:00N 34°37' W 021°03'0 0.0 19.2
2018-Apr-15 20:00N 34°37' W 021°03'1 1.3 19.6
2018-Apr-15 19:00N 34°35' W 021°02'0 0.0 19.9
2018-Apr-15 18:00N 34°35' W 021°02'0 0.0 19.9
2018-Apr-15 17:00N 34°35' W 021°02'1 0.6 19.9
2018-Apr-15 16:00N 34°35' W 021°02'0 0.0 19.4
2018-Apr-15 15:00N 34°35' W 021°02'2 0.5 19.2
2018-Apr-15 12:00N 34°34' W 021°04'0 0.0 18.6
2018-Apr-15 11:00N 34°34' W 021°04'1 1.2 18.6
2018-Apr-15 10:00N 34°35' W 021°04'2 1.9 18.5
2018-Apr-15 09:00N 34°33' W 021°04'1 1.0 18.5
2018-Apr-15 08:00N 34°33' W 021°05'1 0.8 18.5
2018-Apr-15 07:00N 34°32' W 021°06'1 0.8 18.5
2018-Apr-15 06:00N 34°33' W 021°05'0 0.0 18.5
2018-Apr-15 05:00N 34°33' W 021°05'3 0.4 18.5
2018-Apr-14 23:00N 34°32' W 021°08'   18.5
Track history (hours):
 
Tides and Currents Weather Stations Pressure Air Temp Water Temp Dewpoint Dewpoint Depression Visibility Wind Speed Wind Dir Waves Ship Positions

Drifting buoy 44906

Last reported at 2018-Apr-24 23:00 UTC. Time now 2018-Apr-25 01:04 UTC.
Position N 33°26' W 020°47'.

Water temperature 18.3 ° C

Date/timePositionNaut miles runAvg speedWind from/ knotsBaromVisibWave heightAir tempDewpointWater temp
2018-Apr-24 23:00N 33°26' W 020°47'0 0.0 18.3
2018-Apr-24 22:00N 33°26' W 020°47'1 0.8 18.4
2018-Apr-24 21:00N 33°27' W 020°47'0 0.0 18.4
2018-Apr-24 20:00N 33°27' W 020°47'1 1.2 18.4
2018-Apr-24 19:00N 33°28' W 020°46'1 0.6 18.4
2018-Apr-24 18:00N 33°28' W 020°46'1 0.8 18.4
2018-Apr-24 17:00N 33°29' W 020°45'0 0.0 18.4
2018-Apr-24 16:00N 33°29' W 020°45'0 0.0 18.4
2018-Apr-24 15:00N 33°29' W 020°45'2 0.5 18.3
2018-Apr-24 11:00N 33°29' W 020°43'0 0.0 18.3
2018-Apr-24 10:00N 33°29' W 020°43'1 1.0 18.3
2018-Apr-24 09:00N 33°29' W 020°41'1 1.3 18.3
2018-Apr-24 08:00N 33°31' W 020°41'1 1.0 18.3
2018-Apr-24 07:00N 33°31' W 020°40'0 0.0 18.3
2018-Apr-24 06:00N 33°31' W 020°40'0 0.0 18.3
2018-Apr-24 05:00N 33°31' W 020°40'3 3.5 18.3
2018-Apr-24 04:00N 33°32' W 020°36'0 0.0 18.3
2018-Apr-23 23:00N 33°32' W 020°36'0 0.0 18.3
2018-Apr-23 22:00N 33°32' W 020°36'1 1.0 18.3
2018-Apr-23 21:00N 33°32' W 020°35'1 0.8 18.3
2018-Apr-23 20:00N 33°32' W 020°35'2 1.9 18.3
2018-Apr-23 19:00N 33°33' W 020°34'1 0.8 18.3
2018-Apr-23 18:00N 33°34' W 020°33'0 0.5 18.3
2018-Apr-23 17:00N 33°34' W 020°32'0 0.0 18.4
2018-Apr-23 16:00N 33°34' W 020°32'0 0.0 18.4
2018-Apr-23 15:00N 33°34' W 020°32'3 1.0 18.5
2018-Apr-23 12:00N 33°34' W 020°29'1 0.6 18.6
2018-Apr-23 11:00N 33°35' W 020°29'1 0.8 18.6
2018-Apr-23 10:00N 33°34' W 020°28'0 0.0 18.5
2018-Apr-23 09:00N 33°34' W 020°28'3 2.6 18.5
2018-Apr-23 08:00N 33°35' W 020°25'0 0.0 18.5
2018-Apr-23 07:00N 33°35' W 020°25'1 0.6 18.5
2018-Apr-23 06:00N 33°35' W 020°25'0 0.0 18.5
2018-Apr-23 05:00N 33°35' W 020°25'0 0.5 18.5
2018-Apr-23 04:00N 33°35' W 020°26'0 0.0 18.6
2018-Apr-23 03:00N 33°35' W 020°26'2 0.6 18.5
2018-Apr-22 23:00N 33°37' W 020°23'0 0.5 18.6
2018-Apr-22 22:00N 33°37' W 020°23'1 0.8 18.6
2018-Apr-22 21:00N 33°37' W 020°23'1 1.2 18.6
2018-Apr-22 20:00N 33°37' W 020°22'1 0.6 18.6
2018-Apr-22 19:00N 33°37' W 020°22'1 1.2 18.6
2018-Apr-22 18:00N 33°37' W 020°21'1 0.8 18.6
2018-Apr-22 17:00N 33°37' W 020°22'0 0.0 18.6
2018-Apr-22 16:00N 33°37' W 020°22'0 0.0 18.5
2018-Apr-22 15:00N 33°37' W 020°22'2 0.5 18.5
2018-Apr-22 12:00N 33°38' W 020°20'1 0.6 18.4
2018-Apr-22 11:00N 33°39' W 020°20'0 0.5 18.4
2018-Apr-22 10:00N 33°39' W 020°20'1 0.6 18.4
2018-Apr-22 09:00N 33°38' W 020°20'2 2.3 18.5
2018-Apr-22 08:00N 33°40' W 020°17'0 0.0 18.5
2018-Apr-22 07:00N 33°40' W 020°17'1 0.6 18.5
2018-Apr-22 06:00N 33°40' W 020°17'0 0.0 18.4
2018-Apr-22 05:00N 33°40' W 020°17'0 0.5 18.4
2018-Apr-22 04:00N 33°40' W 020°17'4 0.7 18.4
2018-Apr-21 23:00N 33°44' W 020°16'0 0.0 18.4
2018-Apr-21 22:00N 33°44' W 020°16'2 1.9 18.4
2018-Apr-21 21:00N 33°45' W 020°14'0 0.0 18.5
2018-Apr-21 20:00N 33°45' W 020°14'0 0.0 18.5
2018-Apr-21 19:00N 33°45' W 020°14'2 2.1 18.5
2018-Apr-21 18:00N 33°47' W 020°13'1 1.0 18.5
2018-Apr-21 17:00N 33°47' W 020°14'1 1.3 18.5
2018-Apr-21 16:00N 33°48' W 020°14'0 0.0 18.5
2018-Apr-21 15:00N 33°48' W 020°14'0 0.0 18.5
2018-Apr-21 12:00N 33°48' W 020°14'1 0.8 18.4
2018-Apr-21 11:00N 33°49' W 020°13'1 0.8 18.4
2018-Apr-21 10:00N 33°49' W 020°13'1 1.3 18.4
2018-Apr-21 09:00N 33°50' W 020°12'0 0.0 18.4
2018-Apr-21 08:00N 33°50' W 020°12'1 1.5 18.4
2018-Apr-21 07:00N 33°50' W 020°10'1 1.5 18.4
2018-Apr-21 06:00N 33°50' W 020°08'1 1.3 18.4
2018-Apr-21 05:00N 33°52' W 020°09'0 0.0 18.4
2018-Apr-21 04:00N 33°52' W 020°09'6 1.2 18.4
2018-Apr-20 23:00N 33°57' W 020°06'2 1.9 18.5
2018-Apr-20 22:00N 33°58' W 020°04'1 0.6 18.5
2018-Apr-20 21:00N 33°59' W 020°04'2 1.8 18.5
2018-Apr-20 20:00N 34°01' W 020°04'0 0.0 18.5
2018-Apr-20 19:00N 34°01' W 020°04'1 0.6 18.5
2018-Apr-20 18:00N 34°01' W 020°04'1 1.3 18.5
2018-Apr-20 17:00N 34°02' W 020°05'2 2.5 18.5
2018-Apr-20 16:00N 34°05' W 020°04'1 0.3 18.5
2018-Apr-20 12:00N 34°06' W 020°04'0 0.5 18.5
2018-Apr-20 11:00N 34°06' W 020°05'1 1.2 18.5
2018-Apr-20 10:00N 34°07' W 020°04'2 1.6 18.5
2018-Apr-20 09:00N 34°07' W 020°05'0 0.0 18.5
2018-Apr-20 08:00N 34°07' W 020°05'2 2.1 18.5
2018-Apr-20 07:00N 34°09' W 020°04'0 0.5 18.5
2018-Apr-20 06:00N 34°09' W 020°04'2 1.9 18.5
2018-Apr-20 05:00N 34°10' W 020°05'0 0.0 18.5
2018-Apr-20 04:00N 34°10' W 020°05'4 0.9 18.5
2018-Apr-19 23:00N 34°14' W 020°07'2 2.0 18.4
2018-Apr-19 22:00N 34°14' W 020°09'0 0.0 18.4
2018-Apr-19 21:00N 34°14' W 020°09'1 1.2 18.4
2018-Apr-19 20:00N 34°16' W 020°09'0 0.0 18.5
2018-Apr-19 19:00N 34°16' W 020°09'3 3.2 18.5
2018-Apr-19 18:00N 34°19' W 020°08'1 1.3 18.5
2018-Apr-19 17:00N 34°17' W 020°08'1 1.3 18.5
2018-Apr-19 16:00N 34°19' W 020°08'0 0.0 18.5
2018-Apr-19 14:00N 34°19' W 020°08'2 0.9 18.5
2018-Apr-19 12:00N 34°20' W 020°08'1 0.8 18.4
2018-Apr-19 11:00N 34°20' W 020°07'1 1.2 18.4
2018-Apr-19 10:00N 34°21' W 020°07'2 1.9 18.4
2018-Apr-19 09:00N 34°23' W 020°07'0 0.5 18.4
2018-Apr-19 08:00N 34°23' W 020°06'0 0.0 18.3
2018-Apr-19 07:00N 34°23' W 020°06'2 1.9 18.3
2018-Apr-19 06:00N 34°24' W 020°04'5 4.6 18.4
2018-Apr-19 05:00N 34°28' W 020°07'0 0.0 18.4
2018-Apr-19 04:00N 34°28' W 020°07'2 0.3 18.4
2018-Apr-18 23:00N 34°29' W 020°05'1 0.8 18.5
2018-Apr-18 22:00N 34°30' W 020°05'1 1.2 18.5
2018-Apr-18 21:00N 34°31' W 020°06'1 0.8 18.6
2018-Apr-18 20:00N 34°31' W 020°05'0 0.0 18.6
2018-Apr-18 19:00N 34°31' W 020°05'2 1.9 18.6
2018-Apr-18 18:00N 34°33' W 020°05'1 0.8 18.6
2018-Apr-18 17:00N 34°34' W 020°05'0 0.0 18.6
2018-Apr-18 16:00N 34°34' W 020°05'3 3.0 18.6
2018-Apr-18 15:00N 34°37' W 020°05'0 0.2 18.6
2018-Apr-18 12:00N 34°37' W 020°05'1 1.3 18.5
2018-Apr-18 11:00N 34°38' W 020°04'1 0.6 18.5
2018-Apr-18 10:00N 34°38' W 020°04'2 2.1 18.4
2018-Apr-18 09:00N 34°40' W 020°05'1 1.3 18.4
2018-Apr-18 08:00N 34°41' W 020°06'2 1.6 18.4
2018-Apr-18 07:00N 34°42' W 020°04'2 1.9 18.4
2018-Apr-18 06:00N 34°44' W 020°05'8 8.0 18.5
2018-Apr-18 05:00N 34°47' W 020°14'0 0.0 18.5
2018-Apr-18 04:00N 34°47' W 020°14'0 0.0 18.5
2018-Apr-17 23:00N 34°47' W 020°14'1 1.5 18.5
2018-Apr-17 22:00N 34°47' W 020°16'2 2.0 18.6
2018-Apr-17 21:00N 34°47' W 020°18'1 0.8 18.6
2018-Apr-17 20:00N 34°46' W 020°17'1 1.0 18.6
2018-Apr-17 19:00N 34°46' W 020°19'1 1.2 18.6
2018-Apr-17 18:00N 34°46' W 020°17'1 1.5 18.6
2018-Apr-17 17:00N 34°46' W 020°19'1 1.5 18.6
2018-Apr-17 16:00N 34°46' W 020°21'2 2.3 18.6
2018-Apr-17 15:00N 34°47' W 020°23'1 0.4 18.6
2018-Apr-17 12:00N 34°46' W 020°23'1 0.7 18.6
2018-Apr-17 10:00N 34°46' W 020°25'0 0.0 18.5
2018-Apr-17 09:00N 34°46' W 020°25'1 1.5 18.5
2018-Apr-17 08:00N 34°46' W 020°26'1 0.8 18.5
2018-Apr-17 07:00N 34°46' W 020°26'1 0.8 18.6
2018-Apr-17 06:00N 34°47' W 020°25'7 6.9 18.6
2018-Apr-17 05:00N 34°47' W 020°34'0 0.0 18.5
2018-Apr-17 00:00N 34°47' W 020°34'2 0.8 18.6
2018-Apr-16 22:00N 34°47' W 020°35'2 2.1 18.6
2018-Apr-16 21:00N 34°47' W 020°38'1 1.3 18.6
2018-Apr-16 20:00N 34°46' W 020°38'0 0.5 18.6
2018-Apr-16 19:00N 34°46' W 020°39'2 2.1 18.7
2018-Apr-16 18:00N 34°46' W 020°41'0 0.0 18.7
2018-Apr-16 17:00N 34°46' W 020°41'2 2.3 18.7
2018-Apr-16 16:00N 34°44' W 020°44'2 2.5 18.7
2018-Apr-16 15:00N 34°44' W 020°47'2 0.7 18.7
2018-Apr-16 12:00N 34°44' W 020°49'0 0.0 18.6
2018-Apr-16 11:00N 34°44' W 020°49'2 1.9 18.6
2018-Apr-16 10:00N 34°43' W 020°51'1 1.2 18.6
2018-Apr-16 09:00N 34°44' W 020°52'0 0.5 18.5
2018-Apr-16 08:00N 34°44' W 020°53'3 2.5 18.5
2018-Apr-16 07:00N 34°43' W 020°56'0 0.0 18.5
2018-Apr-16 06:00N 34°43' W 020°56'0 0.0 18.6
2018-Apr-16 05:00N 34°43' W 020°56'6 6.1 18.6
2018-Apr-16 04:00N 34°39' W 021°01'1 0.1 18.6
2018-Apr-15 22:00N 34°38' W 021°01'2 2.3 19.0
2018-Apr-15 21:00N 34°37' W 021°03'0 0.0 19.2
2018-Apr-15 20:00N 34°37' W 021°03'1 1.3 19.6
2018-Apr-15 19:00N 34°35' W 021°02'0 0.0 19.9
2018-Apr-15 18:00N 34°35' W 021°02'0 0.0 19.9
2018-Apr-15 17:00N 34°35' W 021°02'1 0.6 19.9
2018-Apr-15 16:00N 34°35' W 021°02'0 0.0 19.4
2018-Apr-15 15:00N 34°35' W 021°02'2 0.5 19.2
2018-Apr-15 12:00N 34°34' W 021°04'0 0.0 18.6
2018-Apr-15 11:00N 34°34' W 021°04'1 1.2 18.6
2018-Apr-15 10:00N 34°35' W 021°04'2 1.9 18.5
2018-Apr-15 09:00N 34°33' W 021°04'1 1.0 18.5
2018-Apr-15 08:00N 34°33' W 021°05'1 0.8 18.5
2018-Apr-15 07:00N 34°32' W 021°06'1 0.8 18.5
2018-Apr-15 06:00N 34°33' W 021°05'0 0.0 18.5
2018-Apr-15 05:00N 34°33' W 021°05'3 0.4 18.5
2018-Apr-14 23:00N 34°32' W 021°08'   18.5

Dump ship's entire track history